Oneida, Ohio
Current Conditions -  °F | °C
As of 3:53 AM on Monday 20 Oct 2014 (Local Time) from KPHD Reporting Station
Few Clouds Few Clouds  
Wind Chill: 40°   Ceiling: Unl
Heat Index: 43°   Visibility: 10mi
Dew Point: 38°   Wind: 5mph
Humidity: 82%   Direction: 140°SE
Pressure: 30.05"   Gusts: NA
Location:  40.6847°N, 81.1826°W
Report Text: KPHD 200753Z AUTO 14004KT 10SM FEW120 06/03 A3005 RMK AO2 SLP177 T00610033
Loading
Personal Weather Stations






























Interactive Weather Map
Tropical Storm Tracking
New forecast layout! Learn more

10-Day Weather Forecast

Advertisements
Track Severe Weather on mobile